createdAt,value
2023-08-29T00:01:11.359Z,1.30
2023-08-29T00:03:38.393Z,1.90
2023-08-29T00:06:06.424Z,1.90
2023-08-29T00:08:34.266Z,1.50
2023-08-29T00:11:03.559Z,1.80
2023-08-29T00:13:31.039Z,1.70
2023-08-29T00:15:58.295Z,1.40
2023-08-29T00:18:25.310Z,1.40
2023-08-29T00:20:53.080Z,1.70
2023-08-29T00:23:19.929Z,1.60
2023-08-29T00:25:49.627Z,1.40
2023-08-29T00:28:16.577Z,1.70
2023-08-29T00:30:45.213Z,1.80
2023-08-29T00:33:12.472Z,1.90
2023-08-29T00:35:40.604Z,1.80
2023-08-29T00:38:07.938Z,1.80
2023-08-29T00:40:35.903Z,1.60
2023-08-29T00:43:06.119Z,1.80
2023-08-29T00:45:35.515Z,2.10
2023-08-29T00:48:02.625Z,1.80
2023-08-29T00:50:30.939Z,1.80
2023-08-29T00:53:00.244Z,2.00
2023-08-29T00:55:27.593Z,1.60
2023-08-29T00:57:57.769Z,2.10
2023-08-29T01:00:28.820Z,1.70
2023-08-29T01:02:57.471Z,1.70
2023-08-29T01:05:24.608Z,1.50
2023-08-29T01:07:59.154Z,1.60
2023-08-29T01:10:38.343Z,2.00
2023-08-29T01:13:26.417Z,1.70
2023-08-29T01:15:57.135Z,1.60
2023-08-29T01:18:25.583Z,1.40
2023-08-29T01:20:57.043Z,1.40
2023-08-29T01:23:32.688Z,1.60
2023-08-29T01:26:14.700Z,1.70
2023-08-29T01:28:44.082Z,1.90
2023-08-29T01:31:11.650Z,1.40
2023-08-29T01:33:43.392Z,1.40
2023-08-29T01:36:10.246Z,1.70
2023-08-29T01:38:37.074Z,1.40
2023-08-29T01:41:03.932Z,1.40
2023-08-29T01:43:30.860Z,1.50
2023-08-29T01:45:57.884Z,1.40
2023-08-29T01:48:25.645Z,1.50
2023-08-29T01:50:53.741Z,1.30
2023-08-29T01:53:20.705Z,1.30
2023-08-29T01:55:48.857Z,1.60
2023-08-29T01:58:16.521Z,1.50
2023-08-29T02:00:43.786Z,1.30
2023-08-29T02:03:10.814Z,1.30
2023-08-29T02:05:37.858Z,1.40
2023-08-29T02:08:05.260Z,1.60
2023-08-29T02:10:33.794Z,1.20
2023-08-29T02:13:00.637Z,1.50
2023-08-29T02:15:27.586Z,1.50
2023-08-29T02:17:54.948Z,1.70
2023-08-29T02:20:21.980Z,1.80
2023-08-29T02:22:48.818Z,1.90
2023-08-29T02:25:15.765Z,2.40
2023-08-29T02:27:42.602Z,2.10
2023-08-29T02:30:11.083Z,2.30
2023-08-29T02:32:39.326Z,1.90
2023-08-29T02:35:07.806Z,2.30
2023-08-29T02:37:35.603Z,3.10
2023-08-29T02:40:06.991Z,2.40
2023-08-29T02:42:35.839Z,2.40
2023-08-29T02:45:06.784Z,2.40
2023-08-29T02:47:33.782Z,2.70
2023-08-29T02:50:00.672Z,2.50
2023-08-29T02:52:27.707Z,3.10
2023-08-29T02:54:55.066Z,2.40
2023-08-29T02:57:21.905Z,3.10
2023-08-29T02:59:48.743Z,2.70
2023-08-29T03:02:15.687Z,2.30
2023-08-29T03:04:43.044Z,2.80
2023-08-29T03:07:10.289Z,2.50
2023-08-29T03:09:37.538Z,2.80
2023-08-29T03:12:05.718Z,2.70
2023-08-29T03:14:33.079Z,2.80
2023-08-29T03:17:00.218Z,3.10
2023-08-29T03:19:27.465Z,2.60
2023-08-29T03:21:54.265Z,2.60
2023-08-29T03:24:21.149Z,3.00
2023-08-29T03:26:47.992Z,3.40
2023-08-29T03:29:15.035Z,3.00
2023-08-29T03:31:42.597Z,3.10
2023-08-29T03:34:09.642Z,3.30
2023-08-29T03:36:36.787Z,2.80
2023-08-29T03:39:03.938Z,2.60
2023-08-29T03:41:31.010Z,3.10
2023-08-29T03:43:57.928Z,3.10
2023-08-29T03:46:24.803Z,3.30
2023-08-29T03:48:52.119Z,2.90
2023-08-29T03:51:19.779Z,3.20
2023-08-29T03:53:46.636Z,3.00
2023-08-29T03:56:14.295Z,3.10
2023-08-29T03:58:42.557Z,3.30
2023-08-29T04:01:12.284Z,3.00
2023-08-29T04:03:39.577Z,3.60
2023-08-29T04:06:07.483Z,3.70
2023-08-29T04:08:34.335Z,3.70
2023-08-29T04:11:04.349Z,3.40
2023-08-29T04:13:31.183Z,3.80
2023-08-29T04:16:04.549Z,4.20
2023-08-29T04:18:32.973Z,3.20
2023-08-29T04:21:00.206Z,3.00
2023-08-29T04:23:27.253Z,3.40
2023-08-29T04:25:59.620Z,3.50
2023-08-29T04:28:27.693Z,3.00
2023-08-29T04:30:55.252Z,3.20
2023-08-29T04:33:23.336Z,3.50
2023-08-29T04:35:52.410Z,3.00
2023-08-29T04:38:19.765Z,3.40
2023-08-29T04:40:46.548Z,3.20
2023-08-29T04:43:13.557Z,3.10
2023-08-29T04:45:41.227Z,3.30
2023-08-29T04:48:08.473Z,3.30
2023-08-29T04:50:36.326Z,3.10
2023-08-29T04:53:04.506Z,3.20
2023-08-29T04:55:31.752Z,3.40
2023-08-29T04:57:59.205Z,3.00
2023-08-29T05:00:26.150Z,3.20
2023-08-29T05:02:53.181Z,3.00
2023-08-29T05:05:20.147Z,3.40
2023-08-29T05:07:47.299Z,3.00
2023-08-29T05:10:14.333Z,3.30
2023-08-29T05:12:42.096Z,3.30
2023-08-29T05:15:09.671Z,3.20
2023-08-29T05:17:37.135Z,3.50
2023-08-29T05:20:05.332Z,3.10
2023-08-29T05:22:32.227Z,3.30
2023-08-29T05:24:59.066Z,2.70
2023-08-29T05:27:26.011Z,3.00
2023-08-29T05:29:52.950Z,3.10
2023-08-29T05:32:19.804Z,3.20
2023-08-29T05:34:46.740Z,3.60
2023-08-29T05:37:13.583Z,3.50
2023-08-29T05:39:40.457Z,3.50
2023-08-29T05:42:07.363Z,3.50
2023-08-29T05:44:34.207Z,3.90
2023-08-29T05:47:01.253Z,3.80
2023-08-29T05:49:28.298Z,4.00
2023-08-29T05:51:55.241Z,3.60
2023-08-29T05:54:22.185Z,3.70
2023-08-29T05:56:49.028Z,4.10
2023-08-29T05:59:16.178Z,3.70
2023-08-29T06:01:43.123Z,3.90
2023-08-29T06:04:09.965Z,3.80
2023-08-29T06:06:40.692Z,3.60
2023-08-29T06:09:11.435Z,3.40
2023-08-29T06:11:38.265Z,3.30
2023-08-29T06:14:05.130Z,3.60
2023-08-29T06:16:32.162Z,3.40
2023-08-29T06:18:59.326Z,3.20
2023-08-29T06:21:26.352Z,3.40
2023-08-29T06:23:53.357Z,2.90
2023-08-29T06:26:20.748Z,3.00
2023-08-29T06:28:47.996Z,3.20
2023-08-29T06:31:15.459Z,3.50
2023-08-29T06:33:42.398Z,3.40
2023-08-29T06:36:09.344Z,3.30
2023-08-29T06:38:37.511Z,3.60
2023-08-29T06:41:05.484Z,3.60
2023-08-29T06:43:32.525Z,3.60
2023-08-29T06:45:59.443Z,3.70
2023-08-29T06:48:26.618Z,3.40
2023-08-29T06:50:53.969Z,3.60
2023-08-29T06:53:20.809Z,3.40
2023-08-29T06:55:47.653Z,3.90
2023-08-29T06:58:14.800Z,3.50
2023-08-29T07:00:41.753Z,3.90
2023-08-29T07:03:08.927Z,3.90
2023-08-29T07:05:37.068Z,3.60
2023-08-29T07:08:05.409Z,3.60
2023-08-29T07:10:32.803Z,3.40
2023-08-29T07:12:59.637Z,4.00
2023-08-29T07:15:26.705Z,4.50
2023-08-29T07:17:54.731Z,4.10
2023-08-29T07:20:21.958Z,4.10
2023-08-29T07:22:48.951Z,4.20
2023-08-29T07:25:18.760Z,3.80
2023-08-29T07:27:45.601Z,4.10
2023-08-29T07:30:16.351Z,4.10
2023-08-29T07:32:44.840Z,4.60
2023-08-29T07:35:11.857Z,4.20
2023-08-29T07:37:38.807Z,3.60
2023-08-29T07:40:06.311Z,4.20
2023-08-29T07:42:33.215Z,4.40
2023-08-29T07:45:00.679Z,4.30
2023-08-29T07:47:27.960Z,4.90
2023-08-29T07:49:54.864Z,4.40
2023-08-29T07:52:21.692Z,4.00
2023-08-29T07:54:48.641Z,4.30
2023-08-29T07:57:15.495Z,4.20
2023-08-29T07:59:42.629Z,4.40
2023-08-29T08:02:09.784Z,4.80
2023-08-29T08:04:37.453Z,4.50
2023-08-29T08:07:04.686Z,5.00
2023-08-29T08:09:32.245Z,4.80
2023-08-29T08:12:01.134Z,4.90
2023-08-29T08:14:28.078Z,5.00
2023-08-29T08:16:55.075Z,5.10
2023-08-29T08:19:21.969Z,4.80
2023-08-29T08:21:51.111Z,5.10
2023-08-29T08:24:18.409Z,5.30
2023-08-29T08:26:45.403Z,5.20
2023-08-29T08:29:12.300Z,4.50
2023-08-29T08:31:39.389Z,5.20
2023-08-29T08:34:06.209Z,4.90
2023-08-29T08:36:33.434Z,4.80
2023-08-29T08:39:00.289Z,5.30
2023-08-29T08:41:27.222Z,5.20
2023-08-29T08:43:56.038Z,5.50
2023-08-29T08:46:23.045Z,4.90
2023-08-29T08:48:50.103Z,5.00
2023-08-29T08:51:20.628Z,5.00
2023-08-29T08:53:47.880Z,5.40
2023-08-29T08:56:15.026Z,5.00
2023-08-29T08:58:42.291Z,4.50
2023-08-29T09:01:09.178Z,4.80
2023-08-29T09:03:36.250Z,4.90
2023-08-29T09:06:03.313Z,5.20
2023-08-29T09:08:32.319Z,5.40
2023-08-29T09:11:02.637Z,5.00
2023-08-29T09:13:30.698Z,5.10
2023-08-29T09:16:01.992Z,4.70
2023-08-29T09:18:32.368Z,4.90
2023-08-29T09:21:01.257Z,4.90
2023-08-29T09:23:30.454Z,4.90
2023-08-29T09:26:00.383Z,4.60
2023-08-29T09:28:28.904Z,5.20
2023-08-29T09:30:57.035Z,4.30
2023-08-29T09:33:23.860Z,4.30
2023-08-29T09:35:50.905Z,4.60
2023-08-29T09:38:19.240Z,4.70
2023-08-29T09:40:49.747Z,4.80
2023-08-29T09:43:17.879Z,4.80
2023-08-29T09:45:55.314Z,4.70
2023-08-29T09:48:23.672Z,4.60
2023-08-29T09:50:51.610Z,4.10
2023-08-29T09:53:20.560Z,4.80
2023-08-29T09:55:50.314Z,5.30
2023-08-29T09:58:18.588Z,5.00
2023-08-29T10:00:46.343Z,4.60
2023-08-29T10:03:13.658Z,4.70
2023-08-29T10:05:45.070Z,4.50
2023-08-29T10:08:11.901Z,4.60
2023-08-29T10:10:43.896Z,4.60
2023-08-29T10:13:11.822Z,4.50
2023-08-29T10:15:43.704Z,4.20
2023-08-29T10:18:11.824Z,4.90
2023-08-29T10:20:40.535Z,4.80
2023-08-29T10:23:07.991Z,4.90
2023-08-29T10:25:37.189Z,4.80
2023-08-29T10:28:05.491Z,4.80
2023-08-29T10:30:33.022Z,4.70
2023-08-29T10:33:02.047Z,4.80
2023-08-29T10:35:32.438Z,4.90
2023-08-29T10:38:11.341Z,4.30
2023-08-29T10:40:40.659Z,4.20
2023-08-29T10:43:24.225Z,4.90
2023-08-29T10:46:00.180Z,4.70
2023-08-29T10:48:30.888Z,5.00
2023-08-29T10:51:22.544Z,4.90
2023-08-29T10:53:54.461Z,4.90
2023-08-29T10:56:27.999Z,4.90
2023-08-29T10:58:56.176Z,5.40
2023-08-29T11:01:29.191Z,5.10
2023-08-29T11:03:57.461Z,5.50
2023-08-29T11:06:26.182Z,5.70
2023-08-29T11:09:21.593Z,6.30
2023-08-29T11:12:08.424Z,5.60
2023-08-29T11:14:51.320Z,5.30
2023-08-29T11:17:23.790Z,5.50
2023-08-29T11:19:58.626Z,5.50
2023-08-29T11:22:28.941Z,5.60
2023-08-29T11:24:56.788Z,6.10
2023-08-29T11:27:25.435Z,5.90
2023-08-29T11:30:11.142Z,5.70
2023-08-29T11:32:50.394Z,6.20
2023-08-29T11:35:17.247Z,6.00
2023-08-29T11:37:44.212Z,5.80
2023-08-29T11:40:12.371Z,5.80
2023-08-29T11:43:12.669Z,5.90
2023-08-29T11:45:45.371Z,6.00
2023-08-29T11:48:42.742Z,5.80
2023-08-29T11:51:09.870Z,6.30
2023-08-29T11:53:38.048Z,5.80
2023-08-29T11:56:06.633Z,6.50
2023-08-29T11:58:36.028Z,6.10
2023-08-29T12:01:04.098Z,5.90
2023-08-29T12:03:35.224Z,5.90
2023-08-29T12:06:04.436Z,5.10
2023-08-29T12:08:40.292Z,5.10
2023-08-29T12:11:08.668Z,5.00
2023-08-29T12:13:36.842Z,5.20
2023-08-29T12:16:05.239Z,4.80
2023-08-29T12:18:33.392Z,4.70
2023-08-29T12:21:29.924Z,4.60
2023-08-29T12:24:09.464Z,4.50
2023-08-29T12:26:36.817Z,5.30
2023-08-29T12:29:03.969Z,4.90
2023-08-29T12:31:30.809Z,5.50
2023-08-29T12:33:57.652Z,5.20
2023-08-29T12:36:24.493Z,4.60
2023-08-29T12:38:51.433Z,5.20
2023-08-29T12:41:18.682Z,4.90
2023-08-29T12:43:45.741Z,5.30
2023-08-29T12:46:12.593Z,4.90
2023-08-29T12:48:39.516Z,5.30
2023-08-29T12:51:08.405Z,5.30
2023-08-29T12:53:35.357Z,4.90
2023-08-29T12:56:03.054Z,5.10
2023-08-29T12:58:29.951Z,4.80
2023-08-29T13:00:57.108Z,5.30
2023-08-29T13:03:24.031Z,5.10
2023-08-29T13:05:52.627Z,5.30
2023-08-29T13:08:19.975Z,4.90
2023-08-29T13:10:46.922Z,4.60
2023-08-29T13:13:13.865Z,4.80
2023-08-29T13:15:50.493Z,4.50
2023-08-29T13:18:19.260Z,4.90
2023-08-29T13:20:46.184Z,4.50
2023-08-29T13:23:13.008Z,4.70
2023-08-29T13:25:39.916Z,5.00
2023-08-29T13:28:07.262Z,5.30
2023-08-29T13:30:34.475Z,5.40
2023-08-29T13:33:01.554Z,4.60
2023-08-29T13:35:28.547Z,4.90
2023-08-29T13:37:55.389Z,4.90
2023-08-29T13:40:22.237Z,5.10
2023-08-29T13:42:50.296Z,5.00
2023-08-29T13:45:17.248Z,5.20
2023-08-29T13:47:45.528Z,5.50
2023-08-29T13:50:12.576Z,5.70
2023-08-29T13:52:39.416Z,5.80
2023-08-29T13:55:06.941Z,5.50
2023-08-29T13:57:33.918Z,5.80
2023-08-29T14:00:00.746Z,6.20
2023-08-29T14:02:28.209Z,6.00
2023-08-29T14:04:55.162Z,5.60
2023-08-29T14:07:22.094Z,6.20
2023-08-29T14:09:49.051Z,6.30
2023-08-29T14:12:15.877Z,6.20
2023-08-29T14:14:42.919Z,5.00
2023-08-29T14:17:09.761Z,6.00
2023-08-29T14:19:36.612Z,6.70
2023-08-29T14:22:05.332Z,6.30
2023-08-29T14:24:32.686Z,6.30
2023-08-29T14:26:59.704Z,7.60
2023-08-29T14:29:31.029Z,10.80
2023-08-29T14:31:58.734Z,7.40
2023-08-29T14:34:25.639Z,6.30
2023-08-29T14:36:52.782Z,6.10
2023-08-29T14:39:19.625Z,5.30
2023-08-29T14:41:46.623Z,5.70
2023-08-29T14:44:13.628Z,5.50
2023-08-29T14:46:41.787Z,5.70
2023-08-29T14:49:08.628Z,5.30
2023-08-29T14:51:35.467Z,6.30
2023-08-29T14:54:04.041Z,5.80
2023-08-29T14:56:31.819Z,6.30
2023-08-29T14:59:00.333Z,6.20
2023-08-29T15:01:27.568Z,6.30
2023-08-29T15:03:54.782Z,6.00
2023-08-29T15:06:21.742Z,5.30
2023-08-29T15:08:48.882Z,5.80
2023-08-29T15:11:16.245Z,5.90
2023-08-29T15:13:43.097Z,5.40
2023-08-29T15:16:10.077Z,5.30
2023-08-29T15:18:37.078Z,5.50
2023-08-29T15:21:04.066Z,5.40
2023-08-29T15:23:30.999Z,5.60
2023-08-29T15:25:58.522Z,5.30
2023-08-29T15:28:34.777Z,5.10
2023-08-29T15:31:03.774Z,4.90
2023-08-29T15:33:31.530Z,5.20
2023-08-29T15:35:58.993Z,5.00
2023-08-29T15:38:26.276Z,5.30
2023-08-29T15:40:55.916Z,4.90
2023-08-29T15:43:26.706Z,5.70
2023-08-29T15:45:54.890Z,5.50
2023-08-29T15:48:22.117Z,5.00
2023-08-29T15:50:49.254Z,4.60
2023-08-29T15:53:16.394Z,4.90
2023-08-29T15:55:44.475Z,5.20
2023-08-29T15:58:14.386Z,5.10
2023-08-29T16:00:41.328Z,5.50
2023-08-29T16:03:08.795Z,5.30
2023-08-29T16:05:36.782Z,5.30
2023-08-29T16:08:04.209Z,5.10
2023-08-29T16:10:31.273Z,5.00
2023-08-29T16:12:58.300Z,5.20
2023-08-29T16:15:25.252Z,5.20
2023-08-29T16:17:52.258Z,5.10
2023-08-29T16:20:19.547Z,6.10
2023-08-29T16:22:47.415Z,5.60
2023-08-29T16:25:15.170Z,5.00
2023-08-29T16:27:42.113Z,5.40
2023-08-29T16:30:11.300Z,5.10
2023-08-29T16:32:40.604Z,5.50
2023-08-29T16:35:08.369Z,5.30
2023-08-29T16:37:38.036Z,5.80
2023-08-29T16:40:07.028Z,5.30
2023-08-29T16:42:33.822Z,5.20
2023-08-29T16:45:00.959Z,5.40
2023-08-29T16:47:27.917Z,5.60
2023-08-29T16:49:54.946Z,5.10
2023-08-29T16:52:21.786Z,5.60
2023-08-29T16:54:48.834Z,5.80
2023-08-29T16:57:17.636Z,5.80
2023-08-29T16:59:59.117Z,5.90
2023-08-29T17:02:26.975Z,5.90
2023-08-29T17:04:55.050Z,5.60
2023-08-29T17:07:22.396Z,5.60
2023-08-29T17:09:49.340Z,5.60
2023-08-29T17:12:20.998Z,5.30
2023-08-29T17:14:50.088Z,5.50
2023-08-29T17:17:17.339Z,5.40
2023-08-29T17:19:44.586Z,5.40
2023-08-29T17:22:11.542Z,5.20
2023-08-29T17:24:38.893Z,5.10
2023-08-29T17:27:06.645Z,4.70
2023-08-29T17:29:33.593Z,5.00
2023-08-29T17:32:00.760Z,4.30
2023-08-29T17:34:28.091Z,4.40
2023-08-29T17:36:57.289Z,4.00
2023-08-29T17:39:24.133Z,4.20
2023-08-29T17:41:50.977Z,4.10
2023-08-29T17:44:17.812Z,3.80
2023-08-29T17:46:44.754Z,3.60
2023-08-29T17:49:11.910Z,3.30
2023-08-29T17:51:39.566Z,3.40
2023-08-29T17:54:06.616Z,3.70
2023-08-29T17:56:33.655Z,3.60
2023-08-29T17:59:00.600Z,3.70
2023-08-29T18:01:27.855Z,3.80
2023-08-29T18:03:55.768Z,3.60
2023-08-29T18:06:25.481Z,3.80
2023-08-29T18:11:22.384Z,3.60
2023-08-29T18:13:49.327Z,3.50
2023-08-29T18:16:16.806Z,4.00
2023-08-29T18:18:44.134Z,4.10
2023-08-29T18:21:12.921Z,4.00
2023-08-29T18:23:39.864Z,4.50
2023-08-29T18:26:08.347Z,5.20
2023-08-29T18:28:35.503Z,5.30
2023-08-29T18:31:06.076Z,4.50
2023-08-29T18:33:35.729Z,4.40
2023-08-29T18:36:02.897Z,4.70
2023-08-29T18:38:30.947Z,4.50
2023-08-29T18:40:58.714Z,4.80
2023-08-29T18:43:25.672Z,4.90
2023-08-29T18:45:52.537Z,4.70
2023-08-29T18:48:20.973Z,4.80
2023-08-29T18:50:47.924Z,4.60
2023-08-29T18:53:14.869Z,4.60
2023-08-29T18:55:42.652Z,5.10
2023-08-29T18:58:09.935Z,4.60
2023-08-29T19:00:38.270Z,3.90
2023-08-29T19:03:05.350Z,4.00
2023-08-29T19:05:34.743Z,3.50
2023-08-29T19:08:02.051Z,3.20
2023-08-29T19:10:28.893Z,3.80
2023-08-29T19:12:55.957Z,3.40
2023-08-29T19:15:22.986Z,3.90
2023-08-29T19:17:49.838Z,3.50
2023-08-29T19:20:18.420Z,3.40
2023-08-29T19:22:45.458Z,3.80
2023-08-29T19:25:12.396Z,3.60
2023-08-29T19:27:39.244Z,3.10
2023-08-29T19:30:10.179Z,2.70
2023-08-29T19:32:37.357Z,2.50
2023-08-29T19:35:04.918Z,2.30
2023-08-29T19:37:32.851Z,2.30
2023-08-29T19:39:59.799Z,2.20
2023-08-29T19:42:26.636Z,1.60
2023-08-29T19:44:53.381Z,1.70
2023-08-29T19:47:24.113Z,1.80
2023-08-29T19:49:51.463Z,1.30
2023-08-29T19:52:18.519Z,1.10
2023-08-29T19:54:45.397Z,1.10
2023-08-29T19:57:13.418Z,1.30
2023-08-29T19:59:40.630Z,1.50
2023-08-29T20:02:10.069Z,1.30
2023-08-29T20:04:37.215Z,1.80
2023-08-29T20:07:04.384Z,1.90
2023-08-29T20:09:32.129Z,1.80
2023-08-29T20:11:59.076Z,1.70
2023-08-29T20:14:29.599Z,1.60
2023-08-29T20:16:59.598Z,1.70
2023-08-29T20:21:53.518Z,1.70
2023-08-29T20:24:24.031Z,1.70
2023-08-29T20:26:51.914Z,2.10
2023-08-29T20:29:18.851Z,2.20
2023-08-29T20:31:45.800Z,2.30
2023-08-29T20:34:12.761Z,2.40
2023-08-29T20:36:39.679Z,2.30
2023-08-29T20:39:07.438Z,2.30
2023-08-29T20:41:34.482Z,2.30
2023-08-29T20:44:01.338Z,2.70
2023-08-29T20:46:28.221Z,3.10
2023-08-29T20:48:55.413Z,4.50
2023-08-29T20:51:22.575Z,4.90
2023-08-29T20:53:49.513Z,4.90
2023-08-29T20:56:16.451Z,4.90
2023-08-29T20:58:43.593Z,4.80
2023-08-29T21:01:10.440Z,4.60
2023-08-29T21:03:37.334Z,3.70
2023-08-29T21:06:04.328Z,3.60
2023-08-29T21:08:31.386Z,4.10
2023-08-29T21:10:58.416Z,3.80
2023-08-29T21:13:25.464Z,4.10
2023-08-29T21:15:52.407Z,4.20
2023-08-29T21:18:20.002Z,3.40
2023-08-29T21:20:54.384Z,4.10
2023-08-29T21:23:21.940Z,3.80
2023-08-29T21:25:49.603Z,4.00
2023-08-29T21:28:20.949Z,4.70
2023-08-29T21:30:47.798Z,5.00
2023-08-29T21:33:14.942Z,5.20
2023-08-29T21:35:43.112Z,5.50
2023-08-29T21:38:11.690Z,5.70
2023-08-29T21:40:40.397Z,5.50
2023-08-29T21:43:12.236Z,4.70
2023-08-29T21:45:41.872Z,4.50
2023-08-29T21:48:10.436Z,5.20
2023-08-29T21:50:42.387Z,5.70
2023-08-29T21:53:10.588Z,5.20
2023-08-29T21:55:39.049Z,4.80
2023-08-29T21:58:07.489Z,4.10
2023-08-29T22:00:35.081Z,4.00
2023-08-29T22:03:02.666Z,4.00
2023-08-29T22:05:31.431Z,4.00
2023-08-29T22:07:59.091Z,3.90
2023-08-29T22:10:26.364Z,3.60
2023-08-29T22:12:53.386Z,4.00
2023-08-29T22:15:20.331Z,4.00
2023-08-29T22:17:47.206Z,4.20
2023-08-29T22:20:14.656Z,4.20
2023-08-29T22:22:41.891Z,4.60
2023-08-29T22:25:09.735Z,4.20
2023-08-29T22:27:37.097Z,4.40
2023-08-29T22:30:05.542Z,4.40
2023-08-29T22:32:34.040Z,4.30
2023-08-29T22:35:02.732Z,4.20
2023-08-29T22:37:29.581Z,4.60
2023-08-29T22:39:56.617Z,4.60
2023-08-29T22:42:23.667Z,3.90
2023-08-29T22:44:50.714Z,3.50
2023-08-29T22:47:18.175Z,3.70
2023-08-29T22:49:45.832Z,3.60
2023-08-29T22:52:13.296Z,3.40
2023-08-29T22:54:41.561Z,4.30
2023-08-29T22:57:08.505Z,4.80
2023-08-29T22:59:35.564Z,6.30
2023-08-29T23:02:06.485Z,7.00
2023-08-29T23:04:34.562Z,6.50
2023-08-29T23:07:07.910Z,7.00
2023-08-29T23:09:36.222Z,7.70
2023-08-29T23:12:04.208Z,8.00
2023-08-29T23:14:31.052Z,8.00
2023-08-29T23:16:58.088Z,8.10
2023-08-29T23:19:25.855Z,9.60
2023-08-29T23:21:53.965Z,8.30
2023-08-29T23:24:21.289Z,9.00
2023-08-29T23:26:51.394Z,9.20
2023-08-29T23:29:19.657Z,8.40
2023-08-29T23:31:46.920Z,7.80
2023-08-29T23:34:13.751Z,7.00
2023-08-29T23:36:40.592Z,7.50
2023-08-29T23:39:10.099Z,5.90
2023-08-29T23:41:36.945Z,6.00
2023-08-29T23:44:04.226Z,5.30
2023-08-29T23:46:31.771Z,4.90
2023-08-29T23:48:58.896Z,3.70
2023-08-29T23:51:25.939Z,3.80
2023-08-29T23:53:52.991Z,3.80
2023-08-29T23:56:19.945Z,4.20
2023-08-29T23:58:46.904Z,5.30
